CMB837 Details

Departure: Joint Base McGuire Dix Lakehurst (KWRI)
Arrival: Ramstein Air Force Base (ETAR) at N/A
Route: PTPL5 SHLEP HTO WHALE N135A PORTI NATW ATSUR GAPLI UN20 SAM UM140 DVR UL9 KONAN UL607 SPI UT180 PESOV T180 NIVNU T847 SIPVU T847 OLIVI Q762 XIDOD
Notes: USTRANSCOM CONTRACT FLIGHT


Current Weather Information
KWRI 230856Z AUTO 27005KT 10SM CLR 14/13 A2983 RMK AO2 SLP101 T01350129 53010
ETAR 230856Z 05007KT 6000 BR OVC006 12/12 A3000 RMK AO2A SLP165 T01150115 55008 $